Time;durP1;ratioP1;P1;durP2;ratioP2;P2;SDS_P1;SDS_P2;PMS_P1;PMS_P2;Temp;Humidity;BMP_temperature;BMP_pressure;BME280_temperature;BME280_humidity;BME280_pressure;Samples;Min_cycle;Max_cycle;Signal;HPM_P1;HPM_P2
2022/04/29 00:02:24;;;;;;;6.97;4.60;;;11.50;99.90;;;;;;10391749;28;20592;-69
2022/04/29 00:07:25;;;;;;;6.07;4.57;;;11.50;99.90;;;;;;10390032;28;20232;-69
2022/04/29 00:12:26;;;;;;;6.73;4.40;;;11.50;99.90;;;;;;10391368;28;20216;-69
2022/04/29 00:17:26;;;;;;;5.70;5.03;;;11.50;99.90;;;;;;10392590;28;20752;-69
2022/04/29 00:22:27;;;;;;;5.93;4.87;;;11.50;99.90;;;;;;10396586;28;20212;-69
2022/04/29 00:27:28;;;;;;;8.03;5.00;;;11.40;99.90;;;;;;10394113;28;20297;-68
2022/04/29 00:32:29;;;;;;;5.93;4.80;;;11.40;99.90;;;;;;10390450;28;20676;-70
2022/04/29 00:37:30;;;;;;;11.20;5.50;;;11.40;99.90;;;;;;10389153;28;20256;-68
2022/04/29 00:42:30;;;;;;;5.97;5.27;;;11.30;99.90;;;;;;10388327;28;20274;-68
2022/04/29 00:47:31;;;;;;;8.60;5.77;;;11.30;99.90;;;;;;10391721;28;20900;-70
2022/04/29 00:52:35;;;;;;;6.27;5.50;;;11.20;99.90;;;;;;10388700;28;20220;-68
2022/04/29 00:57:56;;;;;;;6.57;5.70;;;11.20;99.90;;;;;;10388231;28;20223;-68
2022/04/29 01:03:00;;;;;;;9.20;6.23;;;11.10;99.90;;;;;;10392090;28;20224;-69
2022/04/29 01:08:04;;;;;;;12.73;6.17;;;11.10;99.90;;;;;;10383760;28;20312;-69
2022/04/29 01:13:05;;;;;;;7.87;5.97;;;11.10;99.90;;;;;;10382538;28;20324;-68
2022/04/29 01:18:08;;;;;;;6.57;5.93;;;11.10;99.90;;;;;;10391236;28;20370;-69
2022/04/29 01:23:11;;;;;;;7.83;6.47;;;11.00;99.90;;;;;;10384611;28;21040;-69
2022/04/29 01:28:11;;;;;;;7.23;6.07;;;10.90;99.90;;;;;;10392179;28;20213;-69
2022/04/29 01:33:13;;;;;;;10.17;6.50;;;10.90;99.90;;;;;;10389978;28;20213;-68
2022/04/29 01:38:14;;;;;;;9.37;7.17;;;10.80;99.90;;;;;;10391784;28;20374;-69
2022/04/29 01:43:14;;;;;;;15.07;7.30;;;10.70;99.90;;;;;;10391196;28;20252;-69
2022/04/29 01:48:15;;;;;;;10.63;6.80;;;10.70;99.90;;;;;;10384907;28;20213;-69
2022/04/29 01:53:16;;;;;;;11.70;6.83;;;10.70;99.90;;;;;;10390173;28;20222;-69
2022/04/29 01:58:16;;;;;;;12.80;6.43;;;10.70;99.90;;;;;;10389522;28;20212;-69
2022/04/29 02:03:17;;;;;;;11.43;6.90;;;10.70;99.90;;;;;;10385278;28;20778;-69
2022/04/29 02:08:17;;;;;;;8.37;7.27;;;10.70;99.90;;;;;;10388739;28;20213;-69
2022/04/29 02:13:18;;;;;;;9.60;7.53;;;10.70;99.90;;;;;;10388791;28;20300;-69
2022/04/29 02:18:18;;;;;;;10.37;7.23;;;10.60;99.90;;;;;;10381186;28;20223;-69
2022/04/29 02:23:19;;;;;;;10.07;7.33;;;10.60;99.90;;;;;;10384910;28;20308;-69
2022/04/29 02:28:19;;;;;;;9.13;7.50;;;10.50;99.90;;;;;;10391470;28;20217;-70
2022/04/29 02:33:20;;;;;;;9.13;7.20;;;10.50;99.90;;;;;;10387291;28;20703;-69
2022/04/29 02:38:22;;;;;;;13.50;8.57;;;10.40;99.90;;;;;;10390193;28;20327;-70
2022/04/29 02:43:25;;;;;;;11.57;8.20;;;10.40;99.90;;;;;;10386167;28;20229;-70
2022/04/29 02:48:26;;;;;;;9.50;8.20;;;10.30;99.90;;;;;;10395511;28;20756;-69
2022/04/29 02:53:28;;;;;;;12.10;9.03;;;10.20;99.90;;;;;;10391472;28;20225;-68
2022/04/29 02:58:28;;;;;;;19.13;11.53;;;10.20;99.90;;;;;;10394629;28;20695;-68
2022/04/29 03:03:29;;;;;;;17.73;10.90;;;10.10;99.90;;;;;;10399666;28;20260;-68
2022/04/29 03:08:30;;;;;;;17.00;10.17;;;10.10;99.90;;;;;;10393641;28;20217;-68
2022/04/29 03:13:31;;;;;;;13.73;9.77;;;10.10;99.90;;;;;;10391885;28;20242;-69
2022/04/29 03:18:31;;;;;;;12.70;8.87;;;10.00;99.90;;;;;;10399724;28;20267;-68
2022/04/29 03:23:32;;;;;;;11.50;9.10;;;9.90;99.90;;;;;;10392237;28;20244;-69
2022/04/29 03:28:32;;;;;;;10.63;8.87;;;9.90;99.90;;;;;;10391661;28;20217;-69
2022/04/29 03:33:34;;;;;;;10.53;9.23;;;9.90;99.90;;;;;;10387223;28;20278;-70
2022/04/29 03:38:37;;;;;;;11.07;8.90;;;9.90;99.90;;;;;;10388969;28;20233;-69
2022/04/29 03:43:38;;;;;;;9.80;8.57;;;9.80;99.90;;;;;;10391283;28;20225;-69
2022/04/29 03:53:58;;;;;;;10.90;8.60;;;9.70;99.90;;;;;;10394186;28;20748;-69
2022/04/29 03:58:58;;;;;;;9.30;8.30;;;9.60;99.90;;;;;;10395022;28;20283;-69
2022/04/29 04:03:59;;;;;;;9.83;8.47;;;9.60;99.90;;;;;;10388076;28;20222;-68
2022/04/29 04:09:00;;;;;;;11.23;8.83;;;9.60;99.90;;;;;;10399319;28;20223;-69
2022/04/29 04:14:01;;;;;;;12.63;8.57;;;9.50;99.90;;;;;;10386360;28;20900;-68
2022/04/29 04:19:02;;;;;;;8.80;7.90;;;9.50;99.90;;;;;;10401518;28;20219;-68
2022/04/29 04:24:03;;;;;;;11.93;9.13;;;9.40;99.90;;;;;;10386189;28;20287;-68
2022/04/29 04:29:04;;;;;;;18.30;8.33;;;9.50;99.90;;;;;;10392906;28;20216;-68
2022/04/29 04:39:26;;;;;;;11.17;8.53;;;9.40;99.90;;;;;;10390931;28;20253;-68
2022/04/29 04:44:27;;;;;;;12.60;9.63;;;9.50;99.90;;;;;;10388362;28;20264;-68
2022/04/29 04:49:28;;;;;;;11.97;8.43;;;9.70;99.90;;;;;;10396100;28;20331;-69
2022/04/29 04:54:31;;;;;;;12.07;8.27;;;10.00;99.90;;;;;;10388342;28;20244;-68
2022/04/29 04:59:35;;;;;;;8.53;7.63;;;10.20;99.90;;;;;;10391274;28;20228;-68
2022/04/29 05:04:35;;;;;;;10.97;8.30;;;10.50;99.90;;;;;;10390243;28;20755;-69
2022/04/29 05:09:36;;;;;;;11.17;7.70;;;10.80;99.90;;;;;;10386903;28;20213;-69
2022/04/29 05:14:36;;;;;;;11.43;8.80;;;11.10;99.90;;;;;;10388009;28;20228;-69
2022/04/29 05:19:37;;;;;;;11.67;8.40;;;11.50;99.90;;;;;;10392676;28;20228;-69
2022/04/29 05:24:38;;;;;;;10.17;7.90;;;12.00;99.90;;;;;;10385636;28;20226;-68
2022/04/29 05:29:41;;;;;;;9.43;8.43;;;12.50;99.90;;;;;;10387732;28;20216;-68
2022/04/29 05:34:43;;;;;;;12.20;8.80;;;12.90;99.90;;;;;;10387392;28;20233;-68
2022/04/29 05:45:03;;;;;;;12.53;8.53;;;12.90;99.90;;;;;;10383031;28;20233;-68
2022/04/29 05:50:04;;;;;;;11.53;8.73;;;12.80;99.90;;;;;;10391843;28;20308;-69
2022/04/29 05:55:06;;;;;;;16.53;10.37;;;12.50;99.90;;;;;;10382783;28;20351;-68
2022/04/29 06:00:07;;;;;;;14.03;9.77;;;12.30;99.90;;;;;;10386258;28;20200;-69
2022/04/29 06:05:08;;;;;;;14.83;9.73;;;12.30;99.90;;;;;;10390036;28;20220;-67
2022/04/29 06:10:09;;;;;;;11.17;9.87;;;12.40;99.90;;;;;;10389004;28;20210;-69
2022/04/29 06:15:14;;;;;;;14.63;10.37;;;12.50;99.90;;;;;;10400025;28;20188;-68
2022/04/29 06:20:18;;;;;;;13.50;10.03;;;12.50;99.90;;;;;;10392985;28;20176;-68
2022/04/29 06:25:20;;;;;;;15.93;10.53;;;12.60;99.90;;;;;;10390315;28;20271;-68
2022/04/29 06:30:21;;;;;;;17.47;10.70;;;12.70;99.90;;;;;;10395926;28;20195;-68
2022/04/29 06:35:22;;;;;;;20.00;11.80;;;12.80;99.90;;;;;;10392301;28;20284;-68
2022/04/29 06:40:22;;;;;;;10.73;7.70;;;13.10;99.90;;;;;;10394264;28;20453;-69
2022/04/29 06:45:23;;;;;;;11.63;8.00;;;13.30;99.90;;;;;;10396218;28;20348;-68
2022/04/29 06:50:24;;;;;;;8.63;7.63;;;13.40;99.90;;;;;;10391868;28;20255;-69
2022/04/29 06:55:25;;;;;;;11.70;6.83;;;13.50;99.90;;;;;;10394469;28;20221;-69
2022/04/29 07:00:26;;;;;;;14.87;9.50;;;13.40;99.90;;;;;;10391755;28;20578;-68
2022/04/29 07:05:28;;;;;;;16.57;8.13;;;13.60;99.90;;;;;;10393501;28;20274;-67
2022/04/29 07:10:28;;;;;;;11.50;8.10;;;14.00;99.90;;;;;;10388527;28;20683;-68
2022/04/29 07:15:29;;;;;;;13.47;8.37;;;14.40;99.90;;;;;;10388090;28;20261;-68
2022/04/29 07:20:33;;;;;;;13.73;6.87;;;14.60;99.90;;;;;;10395976;28;20250;-67
2022/04/29 07:25:33;;;;;;;14.83;7.57;;;15.10;99.90;;;;;;10395033;28;20798;-69
2022/04/29 07:30:34;;;;;;;14.00;6.87;;;15.10;99.90;;;;;;10399065;28;20221;-68
2022/04/29 07:46:14;;;;;;;11.57;7.60;;;14.90;99.90;;;;;;10387973;28;20701;-68
2022/04/29 07:51:14;;;;;;;13.60;8.53;;;14.90;99.90;;;;;;10393389;28;20311;-68
2022/04/29 07:56:15;;;;;;;13.80;9.70;;;14.90;99.90;;;;;;10386540;28;20268;-68
2022/04/29 08:01:16;;;;;;;17.07;7.80;;;15.10;99.90;;;;;;10393126;28;20233;-68
2022/04/29 08:06:17;;;;;;;11.83;6.63;;;15.60;99.90;;;;;;10402042;28;20631;-69
2022/04/29 08:11:19;;;;;;;13.23;7.07;;;16.40;99.90;;;;;;10392287;28;20286;-68
2022/04/29 08:16:19;;;;;;;14.90;7.73;;;17.10;99.90;;;;;;10391336;28;20642;-69
2022/04/29 08:21:20;;;;;;;10.43;7.10;;;18.10;99.90;;;;;;10385786;28;20235;-68
2022/04/29 08:26:20;;;;;;;8.63;5.30;;;19.00;97.30;;;;;;10387169;28;20240;-68
2022/04/29 08:31:21;;;;;;;6.77;5.03;;;19.20;95.10;;;;;;10390698;28;20224;-68
2022/04/29 08:36:22;;;;;;;14.70;7.00;;;19.10;94.00;;;;;;10384018;28;20286;-68
2022/04/29 08:41:24;;;;;;;11.40;6.47;;;19.00;93.90;;;;;;10392185;28;20216;-68
2022/04/29 08:46:24;;;;;;;12.53;5.57;;;18.80;94.30;;;;;;10389938;28;20235;-69
2022/04/29 08:51:25;;;;;;;11.17;6.33;;;19.60;92.00;;;;;;10386624;28;20247;-69
2022/04/29 09:01:47;;;;;;;7.27;5.07;;;22.70;77.60;;;;;;10389584;28;20634;-68
2022/04/29 09:06:49;;;;;;;5.37;4.30;;;25.00;61.50;;;;;;10383992;28;20243;-69
2022/04/29 09:11:49;;;;;;;5.80;4.70;;;25.40;56.50;;;;;;10389490;28;20274;-69
2022/04/29 09:16:51;;;;;;;7.43;4.00;;;25.10;55.80;;;;;;10391662;28;20227;-69
2022/04/29 09:22:03;;;;;;;6.70;4.17;;;24.30;56.20;;;;;;10384492;28;20228;-69
2022/04/29 09:27:07;;;;;;;7.00;4.20;;;25.40;54.00;;;;;;10391001;28;20236;-70
2022/04/29 09:32:11;;;;;;;4.27;3.87;;;25.90;52.30;;;;;;10390326;28;20328;-69
2022/04/29 09:37:15;;;;;;;4.20;3.63;;;28.00;48.50;;;;;;10383037;28;20260;-70
2022/04/29 09:42:16;;;;;;;5.23;4.23;;;29.90;43.80;;;;;;10388573;28;20236;-69
2022/04/29 09:47:22;;;;;;;7.50;4.30;;;29.70;41.30;;;;;;10389990;28;20767;-69
2022/04/29 09:52:23;;;;;;;8.57;4.23;;;29.10;42.50;;;;;;10380253;28;20232;-69
2022/04/29 09:57:24;;;;;;;9.03;4.53;;;30.70;39.70;;;;;;10383073;28;20216;-69
2022/04/29 10:02:26;;;;;;;4.93;3.60;;;32.80;36.40;;;;;;10392046;28;20231;-70
2022/04/29 10:07:33;;;;;;;6.10;3.70;;;33.80;33.80;;;;;;10382062;28;20243;-69
2022/04/29 10:12:34;;;;;;;6.23;4.03;;;33.00;31.50;;;;;;10379887;28;20252;-69
2022/04/29 10:23:06;;;;;;;4.77;3.70;;;31.80;34.00;;;;;;10388645;28;20633;-69
2022/04/29 10:28:08;;;;;;;4.80;4.10;;;29.40;34.70;;;;;;10382122;28;20221;-69
2022/04/29 10:33:24;;;;;;;4.10;3.70;;;28.10;36.00;;;;;;10381679;28;20315;-69
2022/04/29 10:38:40;;;;;;;6.10;3.70;;;28.00;38.00;;;;;;10386520;28;20239;-71
2022/04/29 10:43:47;;;;;;;6.20;4.07;;;28.10;39.30;;;;;;10386168;28;20326;-70
2022/04/29 10:48:53;;;;;;;6.40;4.83;;;28.20;38.70;;;;;;10391397;28;20224;-69
2022/04/29 10:53:56;;;;;;;4.90;2.93;;;28.10;37.70;;;;;;10383000;28;20236;-71
2022/04/29 10:59:11;;;;;;;4.70;3.70;;;27.10;38.70;;;;;;10386515;28;20232;-69
2022/04/29 11:04:15;;;;;;;5.57;3.00;;;26.20;40.30;;;;;;10383023;28;20238;-70
2022/04/29 11:09:46;;;;;;;2.80;2.23;;;26.80;40.10;;;;;;10397907;28;20205;-70
2022/04/29 11:15:16;;;;;;;3.27;3.00;;;29.70;29.40;;;;;;10397113;28;20252;-70
2022/04/29 11:20:25;;;;;;;4.17;2.67;;;30.30;28.80;;;;;;10386895;28;20741;-70
2022/04/29 11:25:25;;;;;;;4.07;2.80;;;28.30;29.20;;;;;;10397689;28;20231;-69
2022/04/29 11:30:26;;;;;;;6.53;2.77;;;27.30;31.80;;;;;;10395122;28;20576;-69
2022/04/29 11:35:27;;;;;;;6.83;2.60;;;27.00;31.70;;;;;;10391943;28;20228;-69
2022/04/29 11:40:28;;;;;;;2.97;2.70;;;26.20;33.20;;;;;;10389668;28;20224;-68
2022/04/29 11:45:30;;;;;;;4.10;2.63;;;25.10;34.50;;;;;;10391858;28;20275;-69
2022/04/29 11:50:33;;;;;;;3.63;2.83;;;24.10;35.80;;;;;;10397026;28;20225;-68
2022/04/29 11:55:35;;;;;;;5.37;3.20;;;23.20;38.20;;;;;;10387733;28;20715;-68
2022/04/29 12:00:35;;;;;;;3.50;2.90;;;23.40;38.70;;;;;;10390796;28;20279;-69
2022/04/29 12:05:38;;;;;;;4.10;2.53;;;22.90;38.50;;;;;;10390362;28;20228;-68
2022/04/29 12:10:42;;;;;;;6.37;3.10;;;23.00;39.30;;;;;;10398713;28;20229;-69
2022/04/29 12:15:43;;;;;;;4.77;2.87;;;23.40;39.30;;;;;;10384993;28;20646;-70
2022/04/29 12:20:45;;;;;;;5.77;3.10;;;23.30;39.30;;;;;;10391283;28;20222;-68
2022/04/29 12:25:47;;;;;;;3.70;3.20;;;23.00;39.70;;;;;;10384803;28;20229;-68
2022/04/29 12:36:21;;;;;;;2.83;2.63;;;22.80;40.00;;;;;;10387479;28;20232;-69
2022/04/29 12:41:27;;;;;;;3.90;2.73;;;22.50;40.40;;;;;;10397095;28;20703;-68
2022/04/29 12:46:30;;;;;;;4.00;2.90;;;22.70;41.00;;;;;;10387846;28;20235;-69
2022/04/29 12:51:33;;;;;;;3.10;2.70;;;22.70;40.30;;;;;;10389129;28;20226;-69
2022/04/29 12:56:35;;;;;;;3.33;2.67;;;22.60;41.90;;;;;;10398536;28;20614;-69
2022/04/29 13:01:37;;;;;;;4.23;2.67;;;23.00;40.70;;;;;;10388677;28;20312;-69
2022/04/29 13:06:37;;;;;;;2.47;2.27;;;22.80;40.40;;;;;;10386027;28;20229;-69
2022/04/29 13:11:38;;;;;;;2.63;2.43;;;22.50;40.20;;;;;;10380435;28;20289;-68
2022/04/29 13:16:39;;;;;;;4.07;2.67;;;22.20;40.10;;;;;;10388227;28;20799;-69
2022/04/29 13:21:42;;;;;;;3.27;2.63;;;22.00;41.10;;;;;;10383385;28;20323;-69
2022/04/29 13:26:43;;;;;;;4.90;2.60;;;22.00;40.70;;;;;;10387851;28;20224;-68
2022/04/29 13:31:44;;;;;;;2.83;2.60;;;21.80;42.20;;;;;;10383011;28;20863;-68
2022/04/29 13:36:44;;;;;;;2.53;2.33;;;21.80;41.90;;;;;;10391404;28;20681;-69
2022/04/29 13:41:45;;;;;;;2.83;2.50;;;22.10;41.60;;;;;;10385900;28;20784;-69
2022/04/29 13:46:48;;;;;;;6.20;2.60;;;22.40;41.90;;;;;;10388910;28;20224;-69
2022/04/29 13:51:49;;;;;;;5.40;2.33;;;22.90;41.60;;;;;;10387771;28;20715;-68
2022/04/29 13:56:50;;;;;;;3.37;3.00;;;22.90;41.20;;;;;;10385670;28;20252;-68
2022/04/29 14:01:51;;;;;;;2.90;2.60;;;22.50;41.00;;;;;;10391599;28;20277;-69
2022/04/29 14:06:51;;;;;;;4.00;2.37;;;22.70;41.30;;;;;;10385102;28;20816;-69
2022/04/29 14:11:53;;;;;;;4.13;2.60;;;23.00;40.70;;;;;;10390261;28;20224;-69
2022/04/29 14:16:54;;;;;;;4.73;2.90;;;22.50;40.20;;;;;;10396162;28;20213;-69
2022/04/29 14:21:54;;;;;;;2.60;2.20;;;21.80;41.00;;;;;;10382789;28;20258;-69
2022/04/29 14:26:55;;;;;;;3.33;2.53;;;21.60;41.80;;;;;;10390035;28;20231;-69
2022/04/29 14:31:56;;;;;;;3.17;2.60;;;21.80;41.20;;;;;;10384770;28;20592;-69
2022/04/29 14:36:59;;;;;;;3.40;2.40;;;21.70;42.90;;;;;;10388507;28;20278;-69
2022/04/29 14:42:01;;;;;;;3.10;2.80;;;21.80;42.80;;;;;;10396045;28;20297;-69
2022/04/29 14:47:01;;;;;;;4.63;3.17;;;21.70;43.60;;;;;;10399053;28;20232;-69
2022/04/29 14:52:09;;;;;;;3.40;2.93;;;21.40;44.60;;;;;;10405922;28;20234;-68
2022/04/29 14:57:10;;;;;;;4.50;2.57;;;21.30;44.50;;;;;;10388979;28;20224;-68
2022/04/29 15:02:13;;;;;;;2.73;2.53;;;21.30;44.20;;;;;;10395261;28;20200;-69
2022/04/29 15:07:14;;;;;;;5.23;2.83;;;21.40;43.80;;;;;;10388365;28;20229;-67
2022/04/29 15:17:37;;;;;;;4.20;2.90;;;21.40;44.60;;;;;;10388654;28;20243;-69
2022/04/29 15:22:39;;;;;;;12.13;7.40;;;21.50;44.80;;;;;;10393504;28;20247;-68
2022/04/29 15:27:40;;;;;;;3.20;2.90;;;21.60;44.50;;;;;;10393311;28;20651;-69
2022/04/29 15:32:40;;;;;;;4.17;2.90;;;21.40;44.60;;;;;;10399805;28;20221;-69
2022/04/29 15:37:41;;;;;;;3.63;2.83;;;21.50;44.90;;;;;;10392818;28;20294;-69
2022/04/29 15:42:41;;;;;;;5.53;2.83;;;21.90;45.10;;;;;;10394385;28;20229;-68
2022/04/29 15:47:42;;;;;;;6.20;2.93;;;22.20;44.50;;;;;;10393798;28;20733;-69
2022/04/29 15:52:43;;;;;;;3.37;2.67;;;22.10;44.80;;;;;;10397968;28;20289;-68
2022/04/29 15:57:43;;;;;;;3.30;3.00;;;21.80;45.20;;;;;;10390464;28;20221;-68
2022/04/29 16:02:44;;;;;;;7.53;3.50;;;21.20;45.70;;;;;;10392110;28;20636;-67
2022/04/29 16:07:48;;;;;;;3.63;3.00;;;20.90;47.10;;;;;;10389172;28;20232;-68
2022/04/29 16:12:48;;;;;;;3.70;3.20;;;20.70;48.50;;;;;;10390333;28;20227;-70
2022/04/29 16:28:30;;;;;;;3.97;3.07;;;20.40;48.30;;;;;;10400082;28;20224;-69
2022/04/29 16:33:30;;;;;;;4.50;3.03;;;20.30;47.90;;;;;;10388124;28;20216;-69
2022/04/29 16:38:35;;;;;;;5.43;3.30;;;20.20;49.40;;;;;;10389999;28;20229;-69
2022/04/29 16:43:37;;;;;;;4.63;3.00;;;20.20;48.60;;;;;;10388619;28;20969;-69
2022/04/29 16:48:38;;;;;;;7.27;3.37;;;20.20;49.90;;;;;;10392676;28;20509;-70
2022/04/29 16:53:40;;;;;;;5.23;3.10;;;20.10;49.90;;;;;;10395558;28;20359;-69
2022/04/29 16:58:44;;;;;;;4.50;2.90;;;20.00;50.50;;;;;;10389172;28;20226;-68
2022/04/29 17:03:46;;;;;;;5.53;3.37;;;20.00;50.80;;;;;;10393270;28;20224;-69
2022/04/29 17:08:48;;;;;;;5.83;3.17;;;19.90;50.40;;;;;;10383553;28;20240;-68
2022/04/29 17:13:48;;;;;;;4.70;3.23;;;19.80;51.10;;;;;;10384722;28;20709;-68
2022/04/29 17:18:49;;;;;;;4.63;3.10;;;19.70;51.40;;;;;;10388165;28;20220;-68
2022/04/29 17:23:50;;;;;;;3.17;2.80;;;19.60;51.90;;;;;;10385381;28;20225;-69
2022/04/29 17:28:53;;;;;;;4.50;3.10;;;19.40;52.40;;;;;;10389414;28;20212;-70
2022/04/29 17:33:53;;;;;;;4.73;2.83;;;19.30;52.80;;;;;;10387289;28;20224;-68
2022/04/29 17:38:55;;;;;;;6.77;2.80;;;19.10;53.30;;;;;;10386642;28;20776;-69
2022/04/29 17:43:56;;;;;;;5.70;3.30;;;19.00;53.80;;;;;;10389844;28;20310;-68
2022/04/29 17:48:57;;;;;;;4.43;3.20;;;18.80;54.10;;;;;;10383022;28;20307;-69
2022/04/29 17:53:57;;;;;;;7.90;3.80;;;18.70;54.90;;;;;;10390182;28;20227;-67
2022/04/29 17:58:58;;;;;;;5.57;3.23;;;18.60;55.30;;;;;;10384493;28;20232;-69
2022/04/29 18:03:58;;;;;;;6.17;3.57;;;18.50;55.30;;;;;;10390701;28;20224;-69
2022/04/29 18:09:02;;;;;;;3.80;3.50;;;18.40;56.00;;;;;;10384850;28;20215;-69
2022/04/29 18:14:02;;;;;;;6.00;3.20;;;18.30;56.10;;;;;;10398935;28;20211;-69
2022/04/29 18:19:03;;;;;;;6.43;3.00;;;18.10;56.80;;;;;;10393793;28;20949;-68
2022/04/29 18:24:04;;;;;;;3.60;3.10;;;18.00;57.50;;;;;;10392267;28;20231;-69
2022/04/29 18:29:04;;;;;;;4.17;3.23;;;17.80;58.30;;;;;;10399464;28;20215;-69
2022/04/29 18:34:06;;;;;;;5.30;3.60;;;17.60;58.20;;;;;;10399441;28;20222;-70
2022/04/29 18:39:07;;;;;;;8.63;3.80;;;17.50;58.50;;;;;;10394298;28;20223;-69
2022/04/29 18:44:07;;;;;;;4.23;3.57;;;17.30;59.50;;;;;;10398321;28;20235;-69
2022/04/29 18:49:08;;;;;;;5.27;3.93;;;17.00;60.50;;;;;;10399337;28;20219;-71
2022/04/29 18:54:09;;;;;;;6.53;4.00;;;16.80;61.90;;;;;;10396906;28;20306;-70
2022/04/29 18:59:10;;;;;;;4.70;3.17;;;16.60;64.50;;;;;;10397799;28;20299;-69
2022/04/29 19:04:12;;;;;;;4.30;3.60;;;16.50;64.10;;;;;;10390066;28;20229;-69
2022/04/29 19:09:14;;;;;;;5.13;4.00;;;16.50;64.90;;;;;;10392010;28;20218;-69
2022/04/29 19:14:16;;;;;;;5.77;3.30;;;16.40;65.40;;;;;;10411152;28;20220;-71
2022/04/29 19:19:16;;;;;;;5.23;3.80;;;16.40;66.50;;;;;;10391451;28;20218;-71
2022/04/29 19:24:17;;;;;;;8.13;6.07;;;16.30;68.40;;;;;;10394975;28;20298;-69
2022/04/29 19:29:18;;;;;;;8.03;5.67;;;16.20;69.50;;;;;;10389197;28;20271;-69
2022/04/29 19:34:18;;;;;;;7.40;4.43;;;16.10;71.60;;;;;;10397184;28;20223;-70
2022/04/29 19:39:19;;;;;;;8.27;4.50;;;16.00;74.10;;;;;;10396497;28;20280;-69
2022/04/29 19:44:20;;;;;;;8.30;4.83;;;15.90;75.60;;;;;;10397377;28;20252;-70
2022/04/29 19:49:22;;;;;;;8.70;6.00;;;15.90;76.60;;;;;;10400353;28;20266;-69
2022/04/29 19:54:23;;;;;;;7.97;5.40;;;15.90;74.00;;;;;;10397786;28;20242;-70
2022/04/29 19:59:24;;;;;;;8.27;6.20;;;15.90;75.30;;;;;;10387970;28;20229;-69
2022/04/29 20:04:25;;;;;;;5.97;5.07;;;15.90;76.30;;;;;;10394339;28;20231;-69
2022/04/29 20:09:25;;;;;;;4.93;4.23;;;15.90;75.60;;;;;;10385998;28;20262;-70
2022/04/29 20:14:27;;;;;;;5.07;4.50;;;15.80;74.00;;;;;;10388225;28;20268;-69
2022/04/29 20:19:28;;;;;;;6.90;4.80;;;15.80;76.30;;;;;;10391729;28;20213;-70
2022/04/29 20:24:29;;;;;;;6.30;4.43;;;15.70;77.40;;;;;;10381717;28;20221;-70
2022/04/29 20:29:30;;;;;;;5.60;4.50;;;15.70;77.70;;;;;;10395505;28;20700;-69
2022/04/29 20:34:31;;;;;;;4.77;4.00;;;15.70;76.90;;;;;;10395310;28;20592;-70
2022/04/29 20:44:51;;;;;;;7.33;4.50;;;15.70;76.30;;;;;;10395178;28;20236;-70
2022/04/29 20:49:51;;;;;;;5.77;4.63;;;15.60;76.40;;;;;;10399375;28;20214;-69
2022/04/29 20:54:52;;;;;;;6.00;5.00;;;15.60;77.10;;;;;;10392862;28;20464;-70
2022/04/29 20:59:52;;;;;;;6.87;4.63;;;15.60;78.10;;;;;;10393144;28;20225;-68
2022/04/29 21:04:53;;;;;;;4.17;3.77;;;15.60;79.00;;;;;;10385656;28;20258;-70
2022/04/29 21:09:54;;;;;;;4.30;3.90;;;15.60;79.10;;;;;;10391901;28;20244;-69
2022/04/29 21:14:54;;;;;;;5.57;4.40;;;15.50;79.60;;;;;;10392017;28;20230;-69
2022/04/29 21:19:55;;;;;;;7.90;4.87;;;15.50;80.80;;;;;;10384678;28;20217;-68
2022/04/29 21:24:57;;;;;;;6.20;4.77;;;15.40;81.20;;;;;;10393046;28;20234;-70
2022/04/29 21:35:17;;;;;;;5.83;4.30;;;15.40;82.80;;;;;;10386289;28;20653;-69
2022/04/29 21:40:17;;;;;;;5.20;4.63;;;15.40;83.60;;;;;;10392021;28;20204;-69
2022/04/29 21:45:18;;;;;;;6.50;4.77;;;15.40;84.90;;;;;;10386179;28;20222;-69
2022/04/29 21:50:19;;;;;;;8.90;5.13;;;15.30;86.20;;;;;;10381664;28;20266;-70
2022/04/29 21:55:20;;;;;;;7.63;5.17;;;15.30;87.80;;;;;;10398803;28;20281;-69
2022/04/29 22:00:32;;;;;;;8.70;5.40;;;15.20;89.40;;;;;;10397005;28;20768;-69
2022/04/29 22:05:33;;;;;;;12.33;6.00;;;15.20;90.40;;;;;;10386009;28;20218;-70
2022/04/29 22:10:35;;;;;;;11.97;7.07;;;15.20;91.10;;;;;;10391790;28;20272;-68
2022/04/29 22:15:38;;;;;;;10.07;7.20;;;15.10;92.20;;;;;;10387317;28;20228;-70
2022/04/29 22:20:40;;;;;;;13.83;7.97;;;15.10;93.40;;;;;;10387734;28;20227;-70
2022/04/29 22:25:40;;;;;;;9.10;7.03;;;15.10;94.60;;;;;;10386685;28;20281;-69
2022/04/29 22:30:41;;;;;;;11.03;7.77;;;15.00;96.40;;;;;;10382405;28;20213;-69
2022/04/29 22:35:42;;;;;;;17.13;11.33;;;14.90;98.60;;;;;;10391317;28;20215;-69
2022/04/29 22:40:42;;;;;;;17.33;12.13;;;14.80;99.90;;;;;;10387385;28;20228;-70
2022/04/29 22:45:43;;;;;;;18.53;12.50;;;14.80;99.90;;;;;;10386546;28;20306;-70
2022/04/29 22:50:44;;;;;;;16.97;13.00;;;14.70;99.90;;;;;;10391898;28;20303;-69
2022/04/29 22:55:45;;;;;;;20.87;13.33;;;14.60;99.90;;;;;;10397090;28;20212;-70
2022/04/29 23:00:46;;;;;;;21.10;13.90;;;14.60;99.90;;;;;;10385172;28;20221;-69
2022/04/29 23:05:46;;;;;;;21.27;12.80;;;14.50;99.90;;;;;;10390431;28;20231;-69
2022/04/29 23:10:50;;;;;;;18.27;13.37;;;14.50;99.90;;;;;;10396240;28;20757;-70
2022/04/29 23:15:51;;;;;;;20.83;13.83;;;14.40;99.90;;;;;;10398217;28;20404;-70
2022/04/29 23:20:51;;;;;;;19.13;13.07;;;14.30;99.90;;;;;;10390834;28;20298;-69
2022/04/29 23:25:52;;;;;;;24.33;13.63;;;14.30;99.90;;;;;;10394713;28;20228;-69
2022/04/29 23:30:52;;;;;;;22.90;13.47;;;14.30;99.90;;;;;;10398313;28;20228;-69
2022/04/29 23:35:54;;;;;;;18.60;13.17;;;14.30;99.90;;;;;;10400546;28;20288;-70
2022/04/29 23:40:54;;;;;;;17.90;11.87;;;14.20;99.90;;;;;;10390662;28;20222;-70
2022/04/29 23:45:58;;;;;;;18.80;11.67;;;14.20;99.90;;;;;;10393374;28;20232;-69
2022/04/29 23:50:59;;;;;;;15.57;12.00;;;14.20;99.90;;;;;;10388500;28;20699;-69
2022/04/29 23:56:00;;;;;;;15.50;11.37;;;14.20;99.90;;;;;;10389618;28;20217;-70
